createdAt,value
2018-04-06T00:00:11.539Z,926.47
2018-04-06T00:00:23.588Z,926.47
2018-04-06T00:00:36.547Z,926.5
2018-04-06T00:00:48.640Z,926.44
2018-04-06T00:01:01.586Z,926.46
2018-04-06T00:01:13.638Z,926.47
2018-04-06T00:01:26.220Z,926.46
2018-04-06T00:01:39.180Z,926.48
2018-04-06T00:01:51.709Z,926.47
2018-04-06T00:02:04.717Z,926.49
2018-04-06T00:02:17.693Z,926.46
2018-04-06T00:02:29.781Z,926.46
2018-04-06T00:02:42.325Z,926.51
2018-04-06T00:02:54.850Z,926.47
2018-04-06T00:03:07.884Z,926.48
2018-04-06T00:03:20.395Z,926.46
2018-04-06T00:03:33.341Z,926.45
2018-04-06T00:03:45.377Z,926.46
2018-04-06T00:03:57.871Z,926.46
2018-04-06T00:04:10.408Z,926.47
2018-04-06T00:04:22.903Z,926.5
2018-04-06T00:04:35.473Z,926.49
2018-04-06T00:04:48.609Z,926.49
2018-04-06T00:05:01.627Z,926.49
2018-04-06T00:05:14.120Z,926.47
2018-04-06T00:05:27.144Z,926.49
2018-04-06T00:05:38.753Z,926.46
2018-04-06T00:05:51.804Z,926.49
2018-04-06T00:06:04.365Z,926.46
2018-04-06T00:06:16.917Z,926.48
2018-04-06T00:06:29.430Z,926.47
2018-04-06T00:06:41.947Z,926.49
2018-04-06T00:06:54.933Z,926.5
2018-04-06T00:07:06.515Z,926.49
2018-04-06T00:07:19.489Z,926.49
2018-04-06T00:07:32.433Z,926.48
2018-04-06T00:07:44.982Z,926.48
2018-04-06T00:07:57.040Z,926.5
2018-04-06T00:08:10.087Z,926.47
2018-04-06T00:08:23.038Z,926.48
2018-04-06T00:08:35.020Z,926.47
2018-04-06T00:08:46.605Z,926.43
2018-04-06T00:08:59.583Z,926.44
2018-04-06T00:09:12.583Z,926.44
2018-04-06T00:09:24.186Z,926.46
2018-04-06T00:09:36.707Z,926.43
2018-04-06T00:09:49.718Z,926.42
2018-04-06T00:10:02.216Z,926.44
2018-04-06T00:10:14.258Z,926.44
2018-04-06T00:10:27.235Z,926.46
2018-04-06T00:10:40.206Z,926.51
2018-04-06T00:10:52.750Z,926.43
2018-04-06T00:11:04.793Z,926.46
2018-04-06T00:11:17.704Z,926.46
2018-04-06T00:11:30.701Z,926.46
2018-04-06T00:11:43.692Z,926.43
2018-04-06T00:11:56.677Z,926.45
2018-04-06T00:12:09.586Z,926.47
2018-04-06T00:12:22.563Z,926.44
2018-04-06T00:12:35.528Z,926.45
2018-04-06T00:12:48.080Z,926.48
2018-04-06T00:13:01.102Z,926.46
2018-04-06T00:13:13.153Z,926.48
2018-04-06T00:13:25.642Z,926.48
2018-04-06T00:13:38.168Z,926.5
2018-04-06T00:13:50.650Z,926.49
2018-04-06T00:14:02.229Z,926.5
2018-04-06T00:14:14.277Z,926.5
2018-04-06T00:14:26.729Z,926.52
2018-04-06T00:14:39.299Z,926.54
2018-04-06T00:14:51.805Z,926.53
2018-04-06T00:15:04.702Z,926.52
2018-04-06T00:15:16.716Z,926.52
2018-04-06T00:15:29.253Z,926.57
2018-04-06T00:15:41.772Z,926.51
2018-04-06T00:15:54.766Z,926.5
2018-04-06T00:16:06.832Z,926.53
2018-04-06T00:16:19.853Z,926.55
2018-04-06T00:16:31.877Z,926.54
2018-04-06T00:16:44.391Z,926.53
2018-04-06T00:16:56.925Z,926.54
2018-04-06T00:17:08.970Z,926.55
2018-04-06T00:17:21.938Z,926.57
2018-04-06T00:17:34.868Z,926.57
2018-04-06T00:17:47.130Z,926.53
2018-04-06T00:18:00.145Z,926.54
2018-04-06T00:18:13.138Z,926.59
2018-04-06T00:18:25.212Z,926.55
2018-04-06T00:18:38.326Z,926.56
2018-04-06T00:18:50.822Z,926.55
2018-04-06T00:19:02.890Z,926.57
2018-04-06T00:19:15.421Z,926.55
2018-04-06T00:19:28.370Z,926.57
2018-04-06T00:19:40.962Z,926.59
2018-04-06T00:19:53.961Z,926.58
2018-04-06T00:20:06.975Z,926.55
2018-04-06T00:20:19.031Z,926.57
2018-04-06T00:20:32.045Z,926.56
2018-04-06T00:20:45.016Z,926.57
2018-04-06T00:20:57.944Z,926.54
2018-04-06T00:21:10.894Z,926.55
2018-04-06T00:21:23.423Z,926.59
2018-04-06T00:21:35.939Z,926.57
2018-04-06T00:21:48.875Z,926.59
2018-04-06T00:22:01.347Z,926.6
2018-04-06T00:22:14.345Z,926.59
2018-04-06T00:22:27.336Z,926.55
2018-04-06T00:22:39.818Z,926.54
2018-04-06T00:22:52.303Z,926.56
2018-04-06T00:23:04.819Z,926.56
2018-04-06T00:23:17.737Z,926.56
2018-04-06T00:23:30.732Z,926.56
2018-04-06T00:23:42.992Z,926.55
2018-04-06T00:23:55.512Z,926.57
2018-04-06T00:24:07.549Z,926.59
2018-04-06T00:24:20.078Z,926.58
2018-04-06T00:24:32.602Z,926.65
2018-04-06T00:24:44.673Z,926.58
2018-04-06T00:24:57.234Z,926.58
2018-04-06T00:25:10.258Z,926.61
2018-04-06T00:25:22.768Z,926.55
2018-04-06T00:25:35.292Z,926.59
2018-04-06T00:25:48.247Z,926.59
2018-04-06T00:26:00.778Z,926.58
2018-04-06T00:26:13.318Z,926.58
2018-04-06T00:26:26.287Z,926.62
2018-04-06T00:26:38.796Z,926.58
2018-04-06T00:26:51.785Z,926.56
2018-04-06T00:27:02.894Z,926.58
2018-04-06T00:27:14.474Z,926.6
2018-04-06T00:27:27.369Z,926.6
2018-04-06T00:27:38.982Z,926.58
2018-04-06T00:27:51.926Z,926.58
2018-04-06T00:28:04.906Z,926.63
2018-04-06T00:28:17.413Z,926.61
2018-04-06T00:28:30.372Z,926.6
2018-04-06T00:28:43.656Z,926.6
2018-04-06T00:28:56.197Z,926.6
2018-04-06T00:29:09.182Z,926.6
2018-04-06T00:29:21.697Z,926.63
2018-04-06T00:29:33.720Z,926.63
2018-04-06T00:29:46.174Z,926.61
2018-04-06T00:29:59.121Z,926.67
2018-04-06T00:30:11.154Z,926.64
2018-04-06T00:30:23.633Z,926.63
2018-04-06T00:30:36.159Z,926.64
2018-04-06T00:30:48.714Z,926.6
2018-04-06T00:31:01.697Z,926.66
2018-04-06T00:31:13.353Z,926.63
2018-04-06T00:31:25.830Z,926.58
2018-04-06T00:31:37.904Z,926.65
2018-04-06T00:31:50.931Z,926.66
2018-04-06T00:32:03.492Z,926.63
2018-04-06T00:32:16.431Z,926.65
2018-04-06T00:32:29.399Z,926.64
2018-04-06T00:32:41.903Z,926.62
2018-04-06T00:32:54.842Z,926.62
2018-04-06T00:33:06.867Z,926.63
2018-04-06T00:33:19.856Z,926.61
2018-04-06T00:33:32.833Z,926.63
2018-04-06T00:33:45.791Z,926.65
2018-04-06T00:33:58.330Z,926.67
2018-04-06T00:34:09.942Z,926.65
2018-04-06T00:34:22.534Z,926.68
2018-04-06T00:34:34.134Z,926.65
2018-04-06T00:34:46.601Z,926.68
2018-04-06T00:34:59.593Z,926.64
2018-04-06T00:35:12.598Z,926.66
2018-04-06T00:35:25.631Z,926.67
2018-04-06T00:35:38.201Z,926.65
2018-04-06T00:35:50.307Z,926.65
2018-04-06T00:36:03.270Z,926.68
2018-04-06T00:36:15.790Z,926.65
2018-04-06T00:36:28.721Z,926.65
2018-04-06T00:36:41.188Z,926.66
2018-04-06T00:36:53.214Z,926.66
2018-04-06T00:37:05.697Z,926.66
2018-04-06T00:37:18.162Z,926.66
2018-04-06T00:37:31.173Z,926.63
2018-04-06T00:37:44.172Z,926.65
2018-04-06T00:37:57.138Z,926.68
2018-04-06T00:38:09.670Z,926.64
2018-04-06T00:38:22.674Z,926.68
2018-04-06T00:38:35.165Z,926.66
2018-04-06T00:38:48.149Z,926.67
2018-04-06T00:39:00.192Z,926.69
2018-04-06T00:39:13.193Z,926.71
2018-04-06T00:39:25.230Z,926.71
2018-04-06T00:39:37.720Z,926.7
2018-04-06T00:39:50.258Z,926.71
2018-04-06T00:40:02.765Z,926.74
2018-04-06T00:40:14.840Z,926.72
2018-04-06T00:40:26.893Z,926.72
2018-04-06T00:40:39.834Z,926.71
2018-04-06T00:40:51.890Z,926.76
2018-04-06T00:41:04.888Z,926.77
2018-04-06T00:41:17.425Z,926.73
2018-04-06T00:41:30.415Z,926.7
2018-04-06T00:41:42.001Z,926.74
2018-04-06T00:41:54.566Z,926.67
2018-04-06T00:42:07.068Z,926.71
2018-04-06T00:42:20.043Z,926.74
2018-04-06T00:42:32.550Z,926.76
2018-04-06T00:42:45.094Z,926.76
2018-04-06T00:42:57.160Z,926.76
2018-04-06T00:43:09.734Z,926.71
2018-04-06T00:43:22.698Z,926.71
2018-04-06T00:43:35.265Z,926.75
2018-04-06T00:43:48.456Z,926.69
2018-04-06T00:44:01.449Z,926.75
2018-04-06T00:44:13.978Z,926.67
2018-04-06T00:44:25.975Z,926.71
2018-04-06T00:44:38.450Z,926.74
2018-04-06T00:44:51.421Z,926.75
2018-04-06T00:45:03.017Z,926.76
2018-04-06T00:45:15.591Z,926.74
2018-04-06T00:45:28.096Z,926.73
2018-04-06T00:45:41.063Z,926.77
2018-04-06T00:45:54.036Z,926.78
2018-04-06T00:46:06.112Z,926.74
2018-04-06T00:46:19.132Z,926.77
2018-04-06T00:46:30.699Z,926.72
2018-04-06T00:46:43.675Z,926.73
2018-04-06T00:46:55.750Z,926.73
2018-04-06T00:47:07.363Z,926.78
2018-04-06T00:47:20.301Z,926.76
2018-04-06T00:47:33.006Z,926.75
2018-04-06T00:47:46.178Z,926.75
2018-04-06T00:47:59.178Z,926.79
2018-04-06T00:48:11.648Z,926.75
2018-04-06T00:48:23.233Z,926.8
2018-04-06T00:48:35.720Z,926.76
2018-04-06T00:48:48.262Z,926.76
2018-04-06T00:49:01.159Z,926.78
2018-04-06T00:49:13.711Z,926.76
2018-04-06T00:49:26.720Z,926.83
2018-04-06T00:49:39.294Z,926.78
2018-04-06T00:49:51.830Z,926.74
2018-04-06T00:50:04.845Z,926.75
2018-04-06T00:50:17.816Z,926.8
2018-04-06T00:50:29.389Z,926.76
2018-04-06T00:50:41.515Z,926.78
2018-04-06T00:50:53.988Z,926.76
2018-04-06T00:51:06.516Z,926.76
2018-04-06T00:51:18.509Z,926.71
2018-04-06T00:51:30.637Z,926.77
2018-04-06T00:51:43.114Z,926.77
2018-04-06T00:51:55.594Z,926.76
2018-04-06T00:52:07.650Z,926.78
2018-04-06T00:52:20.655Z,926.78
2018-04-06T00:52:33.177Z,926.79
2018-04-06T00:52:45.682Z,926.79
2018-04-06T00:52:57.729Z,926.81
2018-04-06T00:53:10.211Z,926.81
2018-04-06T00:53:23.205Z,926.77
2018-04-06T00:53:35.697Z,926.8
2018-04-06T00:53:48.680Z,926.75
2018-04-06T00:54:01.855Z,926.76
2018-04-06T00:54:14.812Z,926.77
2018-04-06T00:54:27.228Z,926.78
2018-04-06T00:54:39.755Z,926.79
2018-04-06T00:54:52.718Z,926.79
2018-04-06T00:55:05.211Z,926.81
2018-04-06T00:55:17.258Z,926.77
2018-04-06T00:55:29.794Z,926.77
2018-04-06T00:55:42.391Z,926.79
2018-04-06T00:55:55.372Z,926.8
2018-04-06T00:56:08.340Z,926.79
2018-04-06T00:56:21.279Z,926.8
2018-04-06T00:56:34.207Z,926.78
2018-04-06T00:56:46.681Z,926.79
2018-04-06T00:56:59.716Z,926.79
2018-04-06T00:57:11.768Z,926.8
2018-04-06T00:57:24.335Z,926.81
2018-04-06T00:57:36.842Z,926.81
2018-04-06T00:57:49.394Z,926.78
2018-04-06T00:58:01.980Z,926.76
2018-04-06T00:58:14.004Z,926.78
2018-04-06T00:58:26.951Z,926.79
2018-04-06T00:58:39.478Z,926.77
2018-04-06T00:58:51.950Z,926.79
2018-04-06T00:59:04.477Z,926.82
2018-04-06T00:59:17.020Z,926.82
2018-04-06T00:59:29.525Z,926.79
2018-04-06T00:59:42.549Z,926.81
2018-04-06T00:59:55.558Z,926.79
2018-04-06T01:00:08.492Z,926.81
2018-04-06T01:00:21.418Z,926.77
2018-04-06T01:00:34.384Z,926.81
2018-04-06T01:00:46.889Z,926.78
2018-04-06T01:00:58.901Z,926.78
2018-04-06T01:01:10.924Z,926.78
2018-04-06T01:01:23.434Z,926.81
2018-04-06T01:01:36.406Z,926.8
2018-04-06T01:01:48.468Z,926.79
2018-04-06T01:02:01.438Z,926.78
2018-04-06T01:02:13.971Z,926.78
2018-04-06T01:02:26.556Z,926.8
2018-04-06T01:02:39.129Z,926.78
2018-04-06T01:02:52.147Z,926.82
2018-04-06T01:03:04.210Z,926.8
2018-04-06T01:03:17.189Z,926.8
2018-04-06T01:03:30.183Z,926.77
2018-04-06T01:03:42.678Z,926.79
2018-04-06T01:03:55.217Z,926.8
2018-04-06T01:04:07.274Z,926.82
2018-04-06T01:04:20.228Z,926.8
2018-04-06T01:04:32.745Z,926.81
2018-04-06T01:04:45.681Z,926.79
2018-04-06T01:04:58.668Z,926.79
2018-04-06T01:05:10.266Z,926.83
2018-04-06T01:05:23.241Z,926.78
2018-04-06T01:05:35.298Z,926.83
2018-04-06T01:05:47.839Z,926.84
2018-04-06T01:06:00.775Z,926.8
2018-04-06T01:06:13.753Z,926.81
2018-04-06T01:06:26.289Z,926.83
2018-04-06T01:06:39.248Z,926.82
2018-04-06T01:06:51.751Z,926.79
2018-04-06T01:07:03.794Z,926.8
2018-04-06T01:07:15.841Z,926.81
2018-04-06T01:07:28.361Z,926.82
2018-04-06T01:07:40.417Z,926.82
2018-04-06T01:07:52.946Z,926.83
2018-04-06T01:08:04.542Z,926.82
2018-04-06T01:08:16.634Z,926.82
2018-04-06T01:08:29.126Z,926.8
2018-04-06T01:08:41.681Z,926.81
2018-04-06T01:08:54.721Z,926.8
2018-04-06T01:09:07.688Z,926.79
2018-04-06T01:09:20.181Z,926.81
2018-04-06T01:09:33.163Z,926.8
2018-04-06T01:09:45.706Z,926.79
2018-04-06T01:09:57.734Z,926.77
2018-04-06T01:10:10.159Z,926.82
2018-04-06T01:10:23.159Z,926.77
2018-04-06T01:10:35.662Z,926.77
2018-04-06T01:10:47.721Z,926.82
2018-04-06T01:11:00.674Z,926.79
2018-04-06T01:11:13.160Z,926.76
2018-04-06T01:11:25.612Z,926.81
2018-04-06T01:11:38.136Z,926.79
2018-04-06T01:11:51.152Z,926.76
2018-04-06T01:12:04.138Z,926.77
2018-04-06T01:12:17.085Z,926.76
2018-04-06T01:12:29.585Z,926.79
2018-04-06T01:12:42.593Z,926.75
2018-04-06T01:12:55.555Z,926.76
2018-04-06T01:13:08.092Z,926.77
2018-04-06T01:13:21.117Z,926.76
2018-04-06T01:13:33.172Z,926.78
2018-04-06T01:13:45.695Z,926.76
2018-04-06T01:13:58.197Z,926.77
2018-04-06T01:14:10.731Z,926.79
2018-04-06T01:14:23.667Z,926.8
2018-04-06T01:14:36.193Z,926.78
2018-04-06T01:14:48.666Z,926.81
2018-04-06T01:15:01.172Z,926.81
2018-04-06T01:15:13.649Z,926.79
2018-04-06T01:15:26.610Z,926.82
2018-04-06T01:15:39.136Z,926.82
2018-04-06T01:15:51.628Z,926.79
2018-04-06T01:16:04.677Z,926.79
2018-04-06T01:16:17.199Z,926.83
2018-04-06T01:16:30.238Z,926.8
2018-04-06T01:16:42.799Z,926.83
2018-04-06T01:16:55.364Z,926.81
2018-04-06T01:17:07.911Z,926.81
2018-04-06T01:17:20.857Z,926.8
2018-04-06T01:17:33.836Z,926.82
2018-04-06T01:17:45.899Z,926.84
2018-04-06T01:17:58.379Z,926.81
2018-04-06T01:18:10.907Z,926.83
2018-04-06T01:18:22.512Z,926.81
2018-04-06T01:18:35.489Z,926.78
2018-04-06T01:18:48.466Z,926.8
2018-04-06T01:19:00.960Z,926.81
2018-04-06T01:19:13.533Z,926.78
2018-04-06T01:19:26.504Z,926.79
2018-04-06T01:19:38.564Z,926.79
2018-04-06T01:19:50.586Z,926.84
2018-04-06T01:20:03.080Z,926.8
2018-04-06T01:20:15.628Z,926.8
2018-04-06T01:20:28.191Z,926.81
2018-04-06T01:20:40.727Z,926.78
2018-04-06T01:20:53.646Z,926.76
2018-04-06T01:21:05.701Z,926.81
2018-04-06T01:21:18.665Z,926.8
2018-04-06T01:21:31.210Z,926.76
2018-04-06T01:21:44.184Z,926.76
2018-04-06T01:21:57.219Z,926.77
2018-04-06T01:22:09.270Z,926.75
2018-04-06T01:22:21.743Z,926.73
2018-04-06T01:22:34.248Z,926.78
2018-04-06T01:22:46.799Z,926.74
2018-04-06T01:22:59.726Z,926.77
2018-04-06T01:23:12.230Z,926.76
2018-04-06T01:23:24.316Z,926.74
2018-04-06T01:23:37.348Z,926.74
2018-04-06T01:23:49.872Z,926.73
2018-04-06T01:24:02.850Z,926.74
2018-04-06T01:24:15.551Z,926.77
2018-04-06T01:24:28.571Z,926.74
2018-04-06T01:24:41.584Z,926.73
2018-04-06T01:24:54.104Z,926.72
2018-04-06T01:25:06.631Z,926.72
2018-04-06T01:25:18.703Z,926.71
2018-04-06T01:25:31.706Z,926.69
2018-04-06T01:25:44.262Z,926.69
2018-04-06T01:25:56.818Z,926.73
2018-04-06T01:26:08.884Z,926.71
2018-04-06T01:26:21.873Z,926.71
2018-04-06T01:26:33.462Z,926.71
2018-04-06T01:26:46.037Z,926.7
2018-04-06T01:26:59.055Z,926.74
2018-04-06T01:27:11.089Z,926.7
2018-04-06T01:27:23.539Z,926.71
2018-04-06T01:27:36.052Z,926.7
2018-04-06T01:27:48.543Z,926.73
2018-04-06T01:28:01.541Z,926.71
2018-04-06T01:28:13.988Z,926.71
2018-04-06T01:28:26.494Z,926.71
2018-04-06T01:28:39.428Z,926.75
2018-04-06T01:28:52.389Z,926.71
2018-04-06T01:29:04.914Z,926.7
2018-04-06T01:29:20.074Z,926.7
2018-04-06T01:29:32.215Z,926.73
2018-04-06T01:29:44.743Z,926.73
2018-04-06T01:29:57.760Z,926.72
2018-04-06T01:30:09.757Z,926.72
2018-04-06T01:30:22.733Z,926.74
2018-04-06T01:30:35.248Z,926.74
2018-04-06T01:30:47.749Z,926.74
2018-04-06T01:31:00.770Z,926.74
2018-04-06T01:31:12.859Z,926.75
2018-04-06T01:31:24.972Z,926.75
2018-04-06T01:31:37.032Z,926.76
2018-04-06T01:31:49.519Z,926.77
2018-04-06T01:32:02.516Z,926.76
2018-04-06T01:32:14.584Z,926.81
2018-04-06T01:32:26.625Z,926.76
2018-04-06T01:32:38.685Z,926.79
2018-04-06T01:32:51.650Z,926.78
2018-04-06T01:33:04.601Z,926.78
2018-04-06T01:33:16.661Z,926.76
2018-04-06T01:33:29.617Z,926.78
2018-04-06T01:33:42.128Z,926.79
2018-04-06T01:33:55.090Z,926.8
2018-04-06T01:34:07.610Z,926.78
2018-04-06T01:34:20.132Z,926.8
2018-04-06T01:34:32.643Z,926.78
2018-04-06T01:34:45.660Z,926.78
2018-04-06T01:34:58.187Z,926.77
2018-04-06T01:35:10.267Z,926.79
2018-04-06T01:35:22.755Z,926.81
2018-04-06T01:35:35.218Z,926.81
2018-04-06T01:35:48.213Z,926.82
2018-04-06T01:36:01.201Z,926.78
2018-04-06T01:36:13.713Z,926.79
2018-04-06T01:36:26.613Z,926.82
2018-04-06T01:36:39.593Z,926.79
2018-04-06T01:36:52.533Z,926.82
2018-04-06T01:37:05.539Z,926.78
2018-04-06T01:37:17.581Z,926.78
2018-04-06T01:37:30.578Z,926.78
2018-04-06T01:37:43.525Z,926.79
2018-04-06T01:37:55.982Z,926.8
2018-04-06T01:38:08.514Z,926.79
2018-04-06T01:38:21.495Z,926.77
2018-04-06T01:38:33.986Z,926.81
2018-04-06T01:38:47.016Z,926.8
2018-04-06T01:38:59.101Z,926.77
2018-04-06T01:39:11.610Z,926.76
2018-04-06T01:39:24.597Z,926.77
2018-04-06T01:39:37.580Z,926.77
2018-04-06T01:39:50.096Z,926.76
2018-04-06T01:40:03.073Z,926.78
2018-04-06T01:40:15.582Z,926.74
2018-04-06T01:40:28.109Z,926.75
2018-04-06T01:40:39.692Z,926.79
2018-04-06T01:40:52.178Z,926.74
2018-04-06T01:41:04.204Z,926.72
2018-04-06T01:41:17.161Z,926.77
2018-04-06T01:41:29.196Z,926.73
2018-04-06T01:41:41.677Z,926.71
2018-04-06T01:41:54.174Z,926.73
2018-04-06T01:42:07.162Z,926.72
2018-04-06T01:42:18.749Z,926.71
2018-04-06T01:42:31.690Z,926.7
2018-04-06T01:42:44.281Z,926.72
2018-04-06T01:42:56.756Z,926.72
2018-04-06T01:43:09.734Z,926.73
2018-04-06T01:43:22.222Z,926.7
2018-04-06T01:43:34.758Z,926.71
2018-04-06T01:43:47.739Z,926.73
2018-04-06T01:44:00.792Z,926.7
2018-04-06T01:44:13.504Z,926.7
2018-04-06T01:44:25.097Z,926.72
2018-04-06T01:44:37.183Z,926.69
2018-04-06T01:44:49.290Z,926.71
2018-04-06T01:45:01.843Z,926.7
2018-04-06T01:45:14.892Z,926.67
2018-04-06T01:45:27.422Z,926.71
2018-04-06T01:45:40.460Z,926.72
2018-04-06T01:45:52.998Z,926.71
2018-04-06T01:46:05.496Z,926.72
2018-04-06T01:46:18.017Z,926.7
2018-04-06T01:46:30.951Z,926.64
2018-04-06T01:46:43.404Z,926.7
2018-04-06T01:46:55.903Z,926.69
2018-04-06T01:47:08.430Z,926.69
2018-04-06T01:47:21.442Z,926.7
2018-04-06T01:47:33.460Z,926.76
2018-04-06T01:47:46.455Z,926.71
2018-04-06T01:47:59.060Z,926.71
2018-04-06T01:48:11.632Z,926.76
2018-04-06T01:48:24.642Z,926.75
2018-04-06T01:48:37.676Z,926.71
2018-04-06T01:48:50.748Z,926.72
2018-04-06T01:49:02.829Z,926.74
2018-04-06T01:49:15.328Z,926.75
2018-04-06T01:49:27.405Z,926.71
2018-04-06T01:49:39.461Z,926.73
2018-04-06T01:49:51.982Z,926.73
2018-04-06T01:50:04.512Z,926.73
2018-04-06T01:50:16.969Z,926.68
2018-04-06T01:50:29.917Z,926.74
2018-04-06T01:50:42.370Z,926.73
2018-04-06T01:50:54.833Z,926.75
2018-04-06T01:51:07.734Z,926.72
2018-04-06T01:51:20.232Z,926.76
2018-04-06T01:51:32.747Z,926.73
2018-04-06T01:51:44.794Z,926.71
2018-04-06T01:51:57.279Z,926.71
2018-04-06T01:52:08.830Z,926.7
2018-04-06T01:52:21.271Z,926.71
2018-04-06T01:52:34.245Z,926.7
2018-04-06T01:52:47.211Z,926.7
2018-04-06T01:53:00.314Z,926.68
2018-04-06T01:53:12.928Z,926.7
2018-04-06T01:53:24.981Z,926.69
2018-04-06T01:53:37.965Z,926.75
2018-04-06T01:53:50.947Z,926.73
2018-04-06T01:54:02.977Z,926.67
2018-04-06T01:54:15.485Z,926.7
2018-04-06T01:54:28.198Z,926.72
2018-04-06T01:54:40.712Z,926.74
2018-04-06T01:54:52.772Z,926.72
2018-04-06T01:55:04.855Z,926.7
2018-04-06T01:55:16.969Z,926.73
2018-04-06T01:55:29.439Z,926.72
2018-04-06T01:55:42.412Z,926.74
2018-04-06T01:55:54.907Z,926.75
2018-04-06T01:56:07.888Z,926.77
2018-04-06T01:56:20.817Z,926.76
2018-04-06T01:56:33.787Z,926.74
2018-04-06T01:56:46.772Z,926.73
2018-04-06T01:56:59.702Z,926.76
2018-04-06T01:57:12.208Z,926.73
2018-04-06T01:57:25.178Z,926.69
2018-04-06T01:57:37.682Z,926.7
2018-04-06T01:57:50.694Z,926.71
2018-04-06T01:58:03.149Z,926.75
2018-04-06T01:58:16.165Z,926.7
2018-04-06T01:58:29.203Z,926.75
2018-04-06T01:58:41.786Z,926.74
2018-04-06T01:58:54.765Z,926.77
2018-04-06T01:59:06.811Z,926.77
2018-04-06T01:59:18.920Z,926.77
2018-04-06T01:59:30.525Z,926.76
2018-04-06T01:59:43.034Z,926.75
2018-04-06T01:59:55.646Z,926.77
2018-04-06T02:00:08.752Z,926.79
2018-04-06T02:00:21.290Z,926.76
2018-04-06T02:00:33.853Z,926.77
2018-04-06T02:00:46.774Z,926.73
2018-04-06T02:00:59.779Z,926.76
2018-04-06T02:01:12.383Z,926.75
2018-04-06T02:01:24.412Z,926.74
2018-04-06T02:01:37.402Z,926.77
2018-04-06T02:01:50.403Z,926.77
2018-04-06T02:02:02.438Z,926.76
2018-04-06T02:02:14.428Z,926.78
2018-04-06T02:02:27.412Z,926.77
2018-04-06T02:02:40.425Z,926.73
2018-04-06T02:02:52.948Z,926.75
2018-04-06T02:03:05.026Z,926.74
2018-04-06T02:03:17.973Z,926.75
2018-04-06T02:03:30.955Z,926.73
2018-04-06T02:03:43.869Z,926.74
2018-04-06T02:03:56.390Z,926.74
2018-04-06T02:04:09.348Z,926.76
2018-04-06T02:04:22.320Z,926.77
2018-04-06T02:04:34.875Z,926.77
2018-04-06T02:04:47.856Z,926.75
2018-04-06T02:05:00.838Z,926.76
2018-04-06T02:05:12.882Z,926.79
2018-04-06T02:05:25.384Z,926.81
2018-04-06T02:05:37.862Z,926.79
2018-04-06T02:05:50.869Z,926.74
2018-04-06T02:06:02.918Z,926.72
2018-04-06T02:06:15.874Z,926.76
2018-04-06T02:06:28.781Z,926.76
2018-04-06T02:06:54.024Z,926.76
2018-04-06T02:07:06.068Z,926.76
2018-04-06T02:07:19.062Z,926.77
2018-04-06T02:07:31.602Z,926.79
2018-04-06T02:07:44.551Z,926.73
2018-04-06T02:07:57.490Z,926.76
2018-04-06T02:08:10.001Z,926.75
2018-04-06T02:08:22.988Z,926.75
2018-04-06T02:08:35.546Z,926.75
2018-04-06T02:08:48.000Z,926.76
2018-04-06T02:09:00.990Z,926.73
2018-04-06T02:09:13.539Z,926.77
2018-04-06T02:09:26.073Z,926.76
2018-04-06T02:09:38.090Z,926.73
2018-04-06T02:09:50.624Z,926.73
2018-04-06T02:10:03.607Z,926.76
2018-04-06T02:10:15.685Z,926.76
2018-04-06T02:10:28.222Z,926.76
2018-04-06T02:10:41.196Z,926.74
2018-04-06T02:10:53.738Z,926.75
2018-04-06T02:11:06.204Z,926.68
2018-04-06T02:11:18.779Z,926.73
2018-04-06T02:11:30.369Z,926.74
2018-04-06T02:11:42.866Z,926.69
2018-04-06T02:11:55.887Z,926.7
2018-04-06T02:12:07.035Z,926.72
2018-04-06T02:12:20.017Z,926.72
2018-04-06T02:12:32.983Z,926.69
2018-04-06T02:12:45.537Z,926.67
2018-04-06T02:12:58.516Z,926.7
2018-04-06T02:13:10.153Z,926.71
2018-04-06T02:13:23.172Z,926.69
2018-04-06T02:13:36.105Z,926.7
2018-04-06T02:13:48.681Z,926.73
2018-04-06T02:14:01.661Z,926.67
2018-04-06T02:14:14.191Z,926.67
2018-04-06T02:14:26.921Z,926.7
2018-04-06T02:14:38.981Z,926.68
2018-04-06T02:14:51.975Z,926.7
2018-04-06T02:15:03.524Z,926.7
2018-04-06T02:15:15.996Z,926.7
2018-04-06T02:15:29.006Z,926.69
2018-04-06T02:15:41.548Z,926.67
2018-04-06T02:15:54.079Z,926.66
2018-04-06T02:16:06.122Z,926.67
2018-04-06T02:16:19.055Z,926.69
2018-04-06T02:16:32.035Z,926.66
2018-04-06T02:16:45.053Z,926.66
2018-04-06T02:16:57.961Z,926.66
2018-04-06T02:17:10.016Z,926.64
2018-04-06T02:17:22.061Z,926.64
2018-04-06T02:17:35.040Z,926.63
2018-04-06T02:17:47.088Z,926.66
2018-04-06T02:18:00.048Z,926.66
2018-04-06T02:18:12.662Z,926.64
2018-04-06T02:18:25.646Z,926.66
2018-04-06T02:18:38.184Z,926.65
2018-04-06T02:18:51.173Z,926.65
2018-04-06T02:19:03.257Z,926.67
2018-04-06T02:19:16.225Z,926.66
2018-04-06T02:19:28.872Z,926.63
2018-04-06T02:19:41.393Z,926.64
2018-04-06T02:19:54.320Z,926.63
2018-04-06T02:20:07.319Z,926.65
2018-04-06T02:20:20.309Z,926.65
2018-04-06T02:20:32.858Z,926.66
2018-04-06T02:20:45.385Z,926.69
2018-04-06T02:20:58.386Z,926.69
2018-04-06T02:21:09.991Z,926.65
2018-04-06T02:21:22.081Z,926.66
2018-04-06T02:21:35.091Z,926.68
2018-04-06T02:21:47.994Z,926.63
2018-04-06T02:22:00.440Z,926.66
2018-04-06T02:22:12.957Z,926.66
2018-04-06T02:22:25.976Z,926.65
2018-04-06T02:22:38.956Z,926.64
2018-04-06T02:22:52.007Z,926.68
2018-04-06T02:23:04.041Z,926.65
2018-04-06T02:23:16.094Z,926.66
2018-04-06T02:23:29.081Z,926.7
2018-04-06T02:23:42.087Z,926.71
2018-04-06T02:23:54.569Z,926.68
2018-04-06T02:24:07.069Z,926.69
2018-04-06T02:24:20.108Z,926.71
2018-04-06T02:24:33.539Z,926.72
2018-04-06T02:24:46.506Z,926.7
2018-04-06T02:24:59.584Z,926.7
2018-04-06T02:25:12.111Z,926.73
2018-04-06T02:25:24.620Z,926.72
2018-04-06T02:25:37.146Z,926.71
2018-04-06T02:25:49.674Z,926.7
2018-04-06T02:26:02.169Z,926.75
2018-04-06T02:26:14.714Z,926.74
2018-04-06T02:26:27.232Z,926.74
2018-04-06T02:26:39.695Z,926.72
2018-04-06T02:26:52.664Z,926.74
2018-04-06T02:27:05.237Z,926.74
2018-04-06T02:27:17.720Z,926.77
2018-04-06T02:27:30.247Z,926.8
2018-04-06T02:27:42.766Z,926.77
2018-04-06T02:27:55.264Z,926.84
2018-04-06T02:28:06.322Z,926.8
2018-04-06T02:28:18.824Z,926.8
2018-04-06T02:28:31.363Z,926.79
2018-04-06T02:28:44.320Z,926.78
2018-04-06T02:28:56.341Z,926.74
2018-04-06T02:29:07.865Z,926.79
2018-04-06T02:29:20.351Z,926.8
2018-04-06T02:29:34.342Z,926.77
2018-04-06T02:29:47.238Z,926.78
2018-04-06T02:29:59.744Z,926.83
2018-04-06T02:30:12.739Z,926.74
2018-04-06T02:30:25.305Z,926.79
2018-04-06T02:30:38.262Z,926.79
2018-04-06T02:30:51.242Z,926.81
2018-04-06T02:31:03.782Z,926.79
2018-04-06T02:31:16.271Z,926.77
2018-04-06T02:31:28.281Z,926.78
2018-04-06T02:31:40.844Z,926.78
2018-04-06T02:31:53.399Z,926.77
2018-04-06T02:32:05.968Z,926.81
2018-04-06T02:32:18.464Z,926.77
2018-04-06T02:32:30.623Z,926.84
2018-04-06T02:32:43.587Z,926.81
2018-04-06T02:32:56.107Z,926.79
2018-04-06T02:33:08.664Z,926.76
2018-04-06T02:33:21.197Z,926.82
2018-04-06T02:33:34.190Z,926.78
2018-04-06T02:33:47.153Z,926.8
2018-04-06T02:33:59.696Z,926.78
2018-04-06T02:34:12.206Z,926.78
2018-04-06T02:34:25.221Z,926.78
2018-04-06T02:34:37.769Z,926.79
2018-04-06T02:34:50.241Z,926.81
2018-04-06T02:35:03.241Z,926.76
2018-04-06T02:35:16.243Z,926.76
2018-04-06T02:35:28.747Z,926.77
2018-04-06T02:35:41.272Z,926.78
2018-04-06T02:35:54.242Z,926.75
2018-04-06T02:36:05.843Z,926.74
2018-04-06T02:36:18.345Z,926.78
2018-04-06T02:36:30.419Z,926.78
2018-04-06T02:36:43.388Z,926.74
2018-04-06T02:36:56.383Z,926.76
2018-04-06T02:37:08.482Z,926.74
2018-04-06T02:37:21.058Z,926.74
2018-04-06T02:37:34.057Z,926.73
2018-04-06T02:37:46.082Z,926.7
2018-04-06T02:37:58.596Z,926.73